Time;durP1;ratioP1;P1;durP2;ratioP2;P2;SDS_P1;SDS_P2;PMS_P1;PMS_P2;Temp;Humidity;BMP_temperature;BMP_pressure;BME280_temperature;BME280_humidity;BME280_pressure;Samples;Min_cycle;Max_cycle;Signal;HPM_P1;HPM_P2
2021/07/26 00:00:34;;;;;;;11.85;9.60;;;20.10;99.90;;;;;;4208027;28;20028;-63
2021/07/26 00:02:35;;;;;;;15.50;10.15;;;20.20;99.90;;;;;;4208334;28;20464;-63
2021/07/26 00:04:37;;;;;;;17.80;9.55;;;20.20;99.90;;;;;;4207449;28;20048;-62
2021/07/26 00:06:38;;;;;;;12.75;10.10;;;20.20;99.90;;;;;;4207563;28;20043;-63
2021/07/26 00:08:41;;;;;;;20.13;10.48;;;20.20;99.90;;;;;;4209005;28;20049;-61
2021/07/26 00:10:42;;;;;;;13.40;9.68;;;20.10;99.90;;;;;;4207714;28;20449;-62
2021/07/26 00:12:43;;;;;;;16.15;9.93;;;19.90;99.90;;;;;;4208688;28;20051;-63
2021/07/26 00:14:44;;;;;;;13.43;9.52;;;19.90;99.90;;;;;;4207383;28;20040;-61
2021/07/26 00:16:45;;;;;;;22.00;10.30;;;19.80;99.90;;;;;;4208803;28;20040;-62
2021/07/26 00:18:47;;;;;;;12.23;10.13;;;19.80;99.90;;;;;;4207181;28;20438;-61
2021/07/26 00:20:48;;;;;;;16.33;10.43;;;19.70;99.90;;;;;;4208419;28;20476;-63
2021/07/26 00:22:49;;;;;;;16.23;9.45;;;19.60;99.90;;;;;;4207453;28;20814;-62
2021/07/26 00:24:50;;;;;;;14.60;10.13;;;19.60;99.90;;;;;;4208948;28;20056;-63
2021/07/26 00:26:51;;;;;;;12.15;9.70;;;19.60;99.90;;;;;;4207490;28;20428;-61
2021/07/26 00:28:55;;;;;;;14.13;10.18;;;19.70;99.90;;;;;;4208566;28;20024;-64
2021/07/26 00:30:56;;;;;;;14.85;10.63;;;19.70;99.90;;;;;;4207592;28;20044;-62
2021/07/26 00:32:58;;;;;;;15.68;10.55;;;19.70;99.90;;;;;;4207133;28;20028;-62
2021/07/26 00:34:59;;;;;;;13.77;10.68;;;19.70;99.90;;;;;;4208658;28;20053;-62
2021/07/26 00:37:03;;;;;;;13.13;10.50;;;19.70;99.90;;;;;;4206860;28;20044;-61
2021/07/26 00:39:06;;;;;;;14.52;9.80;;;19.70;99.90;;;;;;4208843;28;20055;-61
2021/07/26 00:41:09;;;;;;;15.45;10.68;;;19.70;99.90;;;;;;4207023;28;20036;-62
2021/07/26 00:43:10;;;;;;;14.27;10.27;;;19.70;99.90;;;;;;4208273;28;20040;-61
2021/07/26 00:45:12;;;;;;;20.02;10.82;;;19.70;99.90;;;;;;4207193;28;20078;-62
2021/07/26 00:47:13;;;;;;;13.82;10.43;;;19.70;99.90;;;;;;4207778;28;20081;-61
2021/07/26 00:49:15;;;;;;;15.73;10.63;;;19.60;99.90;;;;;;4206884;28;20537;-61
2021/07/26 00:51:17;;;;;;;12.32;9.55;;;19.50;99.90;;;;;;4208377;28;20062;-61
2021/07/26 00:53:18;;;;;;;14.93;11.40;;;19.50;99.90;;;;;;4206745;28;20097;-62
2021/07/26 00:55:19;;;;;;;16.23;11.93;;;19.50;99.90;;;;;;4208179;28;20016;-61
2021/07/26 00:57:22;;;;;;;15.20;10.90;;;19.40;99.90;;;;;;4206921;28;20093;-63
2021/07/26 00:59:24;;;;;;;14.23;12.00;;;19.30;99.90;;;;;;4208287;28;20085;-63
2021/07/26 01:01:25;;;;;;;15.23;10.27;;;19.30;99.90;;;;;;4207104;28;20085;-62
2021/07/26 01:03:27;;;;;;;14.48;10.95;;;19.20;99.90;;;;;;4206952;28;20036;-62
2021/07/26 01:05:28;;;;;;;16.27;11.00;;;19.10;99.90;;;;;;4207385;28;20072;-62
2021/07/26 01:07:29;;;;;;;16.50;12.38;;;18.90;99.90;;;;;;4206650;28;20533;-62
2021/07/26 01:09:30;;;;;;;14.63;11.20;;;18.80;99.90;;;;;;4207630;28;20039;-63
2021/07/26 01:11:32;;;;;;;18.90;11.27;;;18.70;99.90;;;;;;4206546;28;20036;-61
2021/07/26 01:13:34;;;;;;;17.75;11.57;;;18.60;99.90;;;;;;4206612;28;20051;-61
2021/07/26 01:15:36;;;;;;;14.70;11.32;;;18.60;99.90;;;;;;4206505;28;20082;-61
2021/07/26 01:18:14;;;;;;;15.05;11.52;;;18.60;99.90;;;;;;4207898;28;20137;-61
2021/07/26 01:20:16;;;;;;;15.07;11.73;;;18.60;99.90;;;;;;4206732;28;20039;-61
2021/07/26 01:22:17;;;;;;;14.30;11.13;;;18.60;99.90;;;;;;4207335;28;20036;-63
2021/07/26 01:24:18;;;;;;;13.77;11.18;;;18.60;99.90;;;;;;4206256;28;20036;-62
2021/07/26 01:26:21;;;;;;;15.75;11.63;;;18.60;99.90;;;;;;4207561;28;20357;-62
2021/07/26 01:28:26;;;;;;;13.95;11.40;;;18.60;99.90;;;;;;4207048;28;20089;-63
2021/07/26 01:30:27;;;;;;;17.27;10.50;;;18.60;99.90;;;;;;4207503;28;20945;-64
2021/07/26 01:32:28;;;;;;;14.75;10.57;;;18.60;99.90;;;;;;4205986;28;20062;-62
2021/07/26 01:34:29;;;;;;;16.85;11.60;;;18.60;99.90;;;;;;4207433;28;20086;-63
2021/07/26 01:36:30;;;;;;;16.83;12.27;;;18.60;99.90;;;;;;4205146;28;20020;-61
2021/07/26 01:38:31;;;;;;;16.05;10.18;;;18.60;99.90;;;;;;4207801;28;20016;-63
2021/07/26 01:40:35;;;;;;;12.90;10.93;;;18.60;99.90;;;;;;4205077;28;20133;-62
2021/07/26 01:42:43;;;;;;;19.25;11.80;;;18.50;99.90;;;;;;4207398;28;20051;-63
2021/07/26 01:44:44;;;;;;;15.70;10.57;;;18.50;99.90;;;;;;4206080;28;20036;-62
2021/07/26 01:47:05;;;;;;;15.25;10.10;;;18.50;99.90;;;;;;4207298;28;20094;-61
2021/07/26 01:49:44;;;;;;;13.75;10.20;;;18.60;99.90;;;;;;4206376;28;20028;-61
2021/07/26 01:51:46;;;;;;;13.98;10.57;;;18.60;99.90;;;;;;4207335;28;20040;-61
2021/07/26 01:53:47;;;;;;;16.13;10.30;;;18.60;99.90;;;;;;4206378;28;20048;-63
2021/07/26 01:55:48;;;;;;;17.77;10.73;;;18.60;99.90;;;;;;4207190;28;20044;-61
2021/07/26 01:57:49;;;;;;;14.00;10.88;;;18.50;99.90;;;;;;4206163;28;20031;-63
2021/07/26 01:59:51;;;;;;;16.40;10.48;;;18.50;99.90;;;;;;4207064;28;20044;-63
2021/07/26 02:01:52;;;;;;;12.00;9.73;;;18.40;99.90;;;;;;4206079;28;20012;-62
2021/07/26 02:03:55;;;;;;;16.10;11.13;;;18.40;99.90;;;;;;4206722;28;20040;-62
2021/07/26 02:05:56;;;;;;;17.33;11.27;;;18.40;99.90;;;;;;4207242;28;20085;-62
2021/07/26 02:07:57;;;;;;;14.63;10.95;;;18.30;99.90;;;;;;4206304;28;20093;-60
2021/07/26 02:09:58;;;;;;;19.05;11.00;;;18.20;99.90;;;;;;4207577;28;20085;-60
2021/07/26 02:12:01;;;;;;;14.60;10.82;;;18.10;99.90;;;;;;4206006;28;20111;-61
2021/07/26 02:14:09;;;;;;;21.85;12.55;;;18.10;99.90;;;;;;4209581;28;20044;-61
2021/07/26 02:16:11;;;;;;;15.90;10.32;;;18.00;99.90;;;;;;4209675;28;20043;-61
2021/07/26 02:18:12;;;;;;;18.15;10.57;;;18.00;99.90;;;;;;4210726;28;20023;-61
2021/07/26 02:20:13;;;;;;;19.15;11.30;;;18.00;99.90;;;;;;4209067;28;20419;-61
2021/07/26 02:22:14;;;;;;;13.82;10.75;;;17.90;99.90;;;;;;4210348;28;20032;-61
2021/07/26 02:24:15;;;;;;;18.88;10.48;;;17.90;99.90;;;;;;4208873;28;20039;-60
2021/07/26 02:26:16;;;;;;;15.35;11.45;;;17.90;99.90;;;;;;4210622;28;20085;-61
2021/07/26 02:28:18;;;;;;;15.05;10.93;;;17.90;99.90;;;;;;4209210;28;20435;-61
2021/07/26 02:30:19;;;;;;;16.23;10.55;;;17.90;99.90;;;;;;4210599;28;20028;-61
2021/07/26 02:32:20;;;;;;;14.23;10.18;;;18.00;99.90;;;;;;4209594;28;20488;-61
2021/07/26 02:34:21;;;;;;;13.55;10.65;;;18.00;99.90;;;;;;4210141;28;20020;-61
2021/07/26 02:36:22;;;;;;;16.88;10.18;;;18.00;99.90;;;;;;4209349;28;20066;-61
2021/07/26 02:38:23;;;;;;;13.50;11.25;;;18.00;99.90;;;;;;4209423;28;20024;-61
2021/07/26 02:40:27;;;;;;;14.77;10.85;;;18.00;99.90;;;;;;4209984;28;20027;-61
2021/07/26 02:42:29;;;;;;;19.60;10.57;;;18.00;99.90;;;;;;4208350;28;20077;-62
2021/07/26 02:44:30;;;;;;;12.93;10.85;;;18.00;99.90;;;;;;4209990;28;20032;-61
2021/07/26 02:46:31;;;;;;;13.30;10.38;;;18.00;99.90;;;;;;4208750;28;20077;-62
2021/07/26 02:48:37;;;;;;;15.93;10.50;;;18.00;99.90;;;;;;4210629;28;20024;-61
2021/07/26 02:50:38;;;;;;;15.73;10.18;;;18.00;99.90;;;;;;4208555;28;20089;-61
2021/07/26 02:52:39;;;;;;;17.75;10.60;;;18.00;99.90;;;;;;4209488;28;20044;-61
2021/07/26 02:54:40;;;;;;;12.32;9.93;;;18.00;99.90;;;;;;4209074;28;20493;-61
2021/07/26 02:56:43;;;;;;;18.85;10.88;;;18.10;99.90;;;;;;4209993;28;20109;-60
2021/07/26 02:58:44;;;;;;;13.35;9.98;;;18.10;99.90;;;;;;4208856;28;20077;-60
2021/07/26 03:00:48;;;;;;;13.68;9.02;;;18.10;99.90;;;;;;4209977;28;20062;-60
2021/07/26 03:02:49;;;;;;;14.27;10.05;;;18.10;99.90;;;;;;4208719;28;20567;-63
2021/07/26 03:04:50;;;;;;;18.15;10.48;;;18.10;99.90;;;;;;4209565;28;20089;-63
2021/07/26 03:06:51;;;;;;;17.70;10.65;;;18.10;99.90;;;;;;4208954;28;20047;-61
2021/07/26 03:08:52;;;;;;;13.07;9.93;;;18.10;99.90;;;;;;4209324;28;20028;-62
2021/07/26 03:11:00;;;;;;;13.90;11.75;;;18.10;99.90;;;;;;4209014;28;20476;-62
2021/07/26 03:13:02;;;;;;;18.30;11.02;;;18.10;99.90;;;;;;4208572;28;20036;-61
2021/07/26 03:15:05;;;;;;;12.77;11.07;;;18.10;99.90;;;;;;4208542;28;20032;-63
2021/07/26 03:17:06;;;;;;;19.27;10.82;;;18.10;99.90;;;;;;4208455;28;20797;-61
2021/07/26 03:19:07;;;;;;;18.08;11.13;;;18.10;99.90;;;;;;4209333;28;20021;-60
2021/07/26 03:21:14;;;;;;;19.75;11.65;;;18.20;99.90;;;;;;4208600;28;20153;-61
2021/07/26 03:23:15;;;;;;;19.38;10.98;;;18.20;99.90;;;;;;4210223;28;20040;-62
2021/07/26 03:25:16;;;;;;;14.77;11.18;;;18.30;99.90;;;;;;4208324;28;20028;-62
2021/07/26 03:27:17;;;;;;;18.80;11.00;;;18.40;99.90;;;;;;4209387;28;20069;-62
2021/07/26 03:29:18;;;;;;;12.30;10.30;;;18.50;99.90;;;;;;4208565;28;20089;-61
2021/07/26 03:31:19;;;;;;;15.57;9.73;;;18.60;99.90;;;;;;4209061;28;20811;-62
2021/07/26 03:33:20;;;;;;;15.50;10.25;;;18.70;99.90;;;;;;4208558;28;20081;-62
2021/07/26 03:35:23;;;;;;;16.40;10.40;;;18.90;99.90;;;;;;4209577;28;20027;-64
2021/07/26 03:37:24;;;;;;;16.77;10.35;;;19.00;99.90;;;;;;4208564;28;20105;-63
2021/07/26 03:39:25;;;;;;;16.77;9.38;;;19.10;99.90;;;;;;4209268;28;20024;-63
2021/07/26 03:41:26;;;;;;;12.18;8.57;;;19.10;99.90;;;;;;4207708;28;20035;-63
2021/07/26 03:43:29;;;;;;;12.20;9.38;;;19.10;99.90;;;;;;4207726;28;20082;-62
2021/07/26 03:45:31;;;;;;;9.82;8.43;;;19.20;99.90;;;;;;4206948;28;20039;-63
2021/07/26 03:47:32;;;;;;;12.52;9.70;;;19.30;99.90;;;;;;4207721;28;20065;-63
2021/07/26 03:49:33;;;;;;;12.07;8.98;;;19.40;99.90;;;;;;4206785;28;20032;-62
2021/07/26 03:51:34;;;;;;;11.07;8.55;;;19.50;99.90;;;;;;4206810;28;20036;-61
2021/07/26 03:53:35;;;;;;;12.75;8.07;;;19.40;99.90;;;;;;4207134;28;20028;-61
2021/07/26 03:55:37;;;;;;;13.55;8.48;;;19.30;99.90;;;;;;4206695;28;20036;-61
2021/07/26 03:57:38;;;;;;;11.10;8.40;;;19.40;99.90;;;;;;4207336;28;20044;-61
2021/07/26 03:59:39;;;;;;;10.98;7.93;;;19.40;99.90;;;;;;4207529;28;20036;-61
2021/07/26 04:01:40;;;;;;;9.70;7.30;;;19.40;99.90;;;;;;4206158;28;20031;-62
2021/07/26 04:03:41;;;;;;;11.40;8.40;;;19.40;99.90;;;;;;4207021;28;20048;-63
2021/07/26 04:05:47;;;;;;;11.98;7.20;;;19.40;99.90;;;;;;4206698;28;20036;-62
2021/07/26 04:07:49;;;;;;;12.70;7.72;;;19.40;99.90;;;;;;4206507;28;20020;-61
2021/07/26 04:09:57;;;;;;;15.35;8.50;;;19.30;99.90;;;;;;4206950;28;20546;-63
2021/07/26 04:12:07;;;;;;;9.75;7.22;;;19.30;99.90;;;;;;4206543;28;20040;-61
2021/07/26 04:14:10;;;;;;;15.45;7.72;;;19.30;99.90;;;;;;4206473;28;20024;-62
2021/07/26 04:16:11;;;;;;;14.20;8.43;;;19.30;99.90;;;;;;4206002;28;20392;-62
2021/07/26 04:18:13;;;;;;;10.15;7.68;;;19.30;99.90;;;;;;4207195;28;20051;-63
2021/07/26 04:20:14;;;;;;;10.98;7.80;;;19.30;99.90;;;;;;4206794;28;20012;-64
2021/07/26 04:22:16;;;;;;;18.17;7.90;;;19.30;99.90;;;;;;4206794;28;20067;-63
2021/07/26 04:24:17;;;;;;;15.57;8.27;;;19.30;99.90;;;;;;4206718;28;20040;-64
2021/07/26 04:26:18;;;;;;;13.63;8.52;;;19.30;99.90;;;;;;4205158;28;20044;-64
2021/07/26 04:28:20;;;;;;;12.20;8.65;;;19.30;99.90;;;;;;4206544;28;20439;-61
2021/07/26 04:30:21;;;;;;;12.35;7.75;;;19.30;99.90;;;;;;4206815;28;20024;-61
2021/07/26 04:32:22;;;;;;;15.05;8.48;;;19.30;99.90;;;;;;4206468;28;20024;-62
2021/07/26 04:34:23;;;;;;;12.05;7.43;;;19.40;99.90;;;;;;4191136;28;20535;-62
2021/07/26 04:36:24;;;;;;;13.60;8.10;;;19.60;99.90;;;;;;4204059;28;20685;-61
2021/07/26 04:38:25;;;;;;;15.27;7.55;;;19.80;99.90;;;;;;4215125;28;20096;-63
2021/07/26 04:40:26;;;;;;;15.13;7.93;;;20.20;99.90;;;;;;4221670;28;20441;-62
2021/07/26 04:42:27;;;;;;;15.13;7.57;;;20.30;99.90;;;;;;4211425;28;20112;-63
2021/07/26 04:44:28;;;;;;;9.00;7.32;;;20.20;99.90;;;;;;4217731;28;20048;-61
2021/07/26 04:46:29;;;;;;;11.98;8.35;;;20.40;99.90;;;;;;4219100;28;20142;-62
2021/07/26 04:48:32;;;;;;;11.27;7.95;;;20.60;99.90;;;;;;4221497;27;20043;-62
2021/07/26 04:50:33;;;;;;;18.33;7.22;;;20.70;99.90;;;;;;4221282;27;20498;-62
2021/07/26 04:52:35;;;;;;;17.83;7.82;;;20.90;99.90;;;;;;4221588;28;20096;-62
2021/07/26 04:54:36;;;;;;;19.70;8.18;;;21.10;99.90;;;;;;4221045;28;20085;-61
2021/07/26 04:56:37;;;;;;;10.77;7.40;;;21.20;99.90;;;;;;4201445;28;20193;-63
2021/07/26 04:58:38;;;;;;;10.80;6.95;;;21.30;99.90;;;;;;4203678;28;20105;-60
2021/07/26 05:00:39;;;;;;;12.77;7.97;;;21.50;99.90;;;;;;4205870;28;20039;-62
2021/07/26 05:02:40;;;;;;;10.10;7.85;;;21.60;99.90;;;;;;4205610;28;20442;-61
2021/07/26 05:04:42;;;;;;;15.68;7.18;;;21.60;99.90;;;;;;4205395;28;20058;-60
2021/07/26 05:06:43;;;;;;;9.95;7.07;;;21.80;99.90;;;;;;4205865;28;20032;-62
2021/07/26 05:08:44;;;;;;;9.88;7.32;;;21.90;99.90;;;;;;4205667;28;20053;-62
2021/07/26 05:10:47;;;;;;;10.43;7.43;;;22.00;99.90;;;;;;4205823;28;20029;-61
2021/07/26 05:12:49;;;;;;;12.35;7.63;;;22.00;99.90;;;;;;4204571;28;20040;-61
2021/07/26 05:14:53;;;;;;;10.43;7.35;;;21.80;99.90;;;;;;4205292;28;20832;-61
2021/07/26 05:16:54;;;;;;;11.50;6.88;;;21.90;99.90;;;;;;4205527;28;20028;-62
2021/07/26 05:18:55;;;;;;;9.45;7.40;;;22.00;99.90;;;;;;4205746;28;20385;-63
2021/07/26 05:20:56;;;;;;;8.60;6.40;;;22.30;99.90;;;;;;4204891;28;20028;-62
2021/07/26 05:22:58;;;;;;;10.50;7.97;;;22.40;99.90;;;;;;4205536;28;20032;-61
2021/07/26 05:24:59;;;;;;;8.95;7.15;;;22.20;99.90;;;;;;4205691;28;20077;-62
2021/07/26 05:27:04;;;;;;;11.75;6.55;;;22.20;99.90;;;;;;4205115;28;20089;-62
2021/07/26 05:29:05;;;;;;;10.85;7.03;;;22.30;99.90;;;;;;4204184;28;20048;-61
2021/07/26 05:31:07;;;;;;;12.85;6.45;;;22.40;99.90;;;;;;4205522;28;20141;-62
2021/07/26 05:33:08;;;;;;;10.30;6.93;;;22.70;99.90;;;;;;4205626;28;20045;-61
2021/07/26 05:35:09;;;;;;;10.43;7.07;;;22.80;99.90;;;;;;4205890;28;20137;-60
2021/07/26 05:37:11;;;;;;;8.40;6.43;;;22.70;99.90;;;;;;4205127;28;20032;-60
2021/07/26 05:39:12;;;;;;;12.15;7.28;;;22.80;99.90;;;;;;4205238;28;20032;-61
2021/07/26 05:41:13;;;;;;;16.38;6.97;;;22.90;99.90;;;;;;4205041;28;20035;-61
2021/07/26 05:43:14;;;;;;;13.73;6.95;;;22.90;99.90;;;;;;4205306;28;20032;-61
2021/07/26 05:45:15;;;;;;;10.18;6.47;;;22.80;99.90;;;;;;4205176;28;20058;-61
2021/07/26 05:47:17;;;;;;;9.27;6.47;;;22.80;99.90;;;;;;4204574;28;20032;-62
2021/07/26 05:49:18;;;;;;;8.68;6.93;;;22.80;99.90;;;;;;4205176;28;20044;-61
2021/07/26 05:51:19;;;;;;;11.52;6.30;;;22.90;99.90;;;;;;4204813;28;20101;-64
2021/07/26 05:53:20;;;;;;;9.80;6.82;;;23.00;99.90;;;;;;4205449;28;20052;-61
2021/07/26 05:55:21;;;;;;;11.55;7.57;;;23.20;99.90;;;;;;4204729;28;20541;-61
2021/07/26 05:57:24;;;;;;;14.70;7.32;;;23.30;99.90;;;;;;4205523;28;20066;-61
2021/07/26 05:59:27;;;;;;;10.30;6.82;;;23.50;99.90;;;;;;4205252;28;20101;-62
2021/07/26 06:01:47;;;;;;;10.50;6.85;;;23.50;99.90;;;;;;4205216;28;20036;-63
2021/07/26 06:03:49;;;;;;;9.45;6.72;;;23.50;99.90;;;;;;4205107;28;20432;-63
2021/07/26 06:05:51;;;;;;;8.40;6.05;;;23.60;99.90;;;;;;4205049;28;20109;-63
2021/07/26 06:07:53;;;;;;;9.45;6.07;;;23.60;99.90;;;;;;4204955;28;20468;-64
2021/07/26 06:09:54;;;;;;;7.80;5.43;;;23.60;99.90;;;;;;4203315;28;20040;-62
2021/07/26 06:11:56;;;;;;;13.10;6.82;;;23.80;99.90;;;;;;4205135;28;20093;-62
2021/07/26 06:13:57;;;;;;;9.52;5.50;;;23.90;99.90;;;;;;4204949;28;20037;-63
2021/07/26 06:15:58;;;;;;;7.90;5.32;;;24.00;99.90;;;;;;4204947;28;20821;-64
2021/07/26 06:17:59;;;;;;;7.32;4.90;;;23.90;99.90;;;;;;4205177;28;20468;-63
2021/07/26 06:20:02;;;;;;;10.90;5.53;;;24.00;99.90;;;;;;4204989;28;20039;-62
2021/07/26 06:22:03;;;;;;;12.43;5.35;;;24.00;99.90;;;;;;4205280;28;20447;-63
2021/07/26 06:24:04;;;;;;;7.97;4.93;;;24.10;99.90;;;;;;4205369;28;20032;-62
2021/07/26 06:26:06;;;;;;;11.07;5.88;;;24.10;99.90;;;;;;4204884;28;20043;-62
2021/07/26 06:28:08;;;;;;;11.10;5.50;;;24.20;99.90;;;;;;4205375;28;20084;-62
2021/07/26 06:30:09;;;;;;;9.13;5.30;;;24.10;99.90;;;;;;4204883;28;20685;-65
2021/07/26 06:32:10;;;;;;;10.57;5.63;;;24.20;99.90;;;;;;4205431;28;20932;-63
2021/07/26 06:34:12;;;;;;;8.27;5.28;;;24.30;99.90;;;;;;4204445;28;20066;-62
2021/07/26 06:36:13;;;;;;;11.00;5.53;;;24.30;99.90;;;;;;4205251;28;20069;-62
2021/07/26 06:38:14;;;;;;;10.02;6.05;;;24.50;99.90;;;;;;4204670;28;20097;-62
2021/07/26 06:40:16;;;;;;;10.50;5.35;;;24.60;99.90;;;;;;4204537;28;20434;-62
2021/07/26 06:42:18;;;;;;;8.45;5.70;;;24.80;99.90;;;;;;4204670;28;20043;-63
2021/07/26 06:44:19;;;;;;;12.30;6.07;;;24.80;99.90;;;;;;4204594;28;20044;-63
2021/07/26 06:46:20;;;;;;;9.77;5.85;;;25.00;99.90;;;;;;4203229;28;20047;-62
2021/07/26 06:48:24;;;;;;;16.20;7.18;;;24.90;99.90;;;;;;4204769;28;20103;-63
2021/07/26 06:50:25;;;;;;;15.23;7.45;;;24.80;99.90;;;;;;4204735;28;20081;-62
2021/07/26 06:52:26;;;;;;;10.80;6.80;;;24.90;99.90;;;;;;4204493;28;20090;-62
2021/07/26 06:54:27;;;;;;;8.48;5.78;;;25.00;99.90;;;;;;4204826;28;20035;-63
2021/07/26 06:56:28;;;;;;;11.98;6.13;;;24.90;99.90;;;;;;4204549;28;20121;-62
2021/07/26 06:58:30;;;;;;;9.18;5.80;;;25.00;99.90;;;;;;4205122;28;20040;-63
2021/07/26 07:00:32;;;;;;;8.73;5.55;;;24.90;99.90;;;;;;4206593;28;20105;-63
2021/07/26 07:02:33;;;;;;;7.47;5.60;;;24.80;99.90;;;;;;4208299;28;20524;-62
2021/07/26 07:04:34;;;;;;;8.70;6.25;;;24.90;99.90;;;;;;4208111;28;20093;-63
2021/07/26 07:06:35;;;;;;;8.43;6.18;;;25.10;99.90;;;;;;4207412;28;20109;-62
2021/07/26 07:08:37;;;;;;;9.05;5.65;;;25.10;99.90;;;;;;4208012;28;20077;-62
2021/07/26 07:10:38;;;;;;;11.75;5.45;;;25.20;99.90;;;;;;4207570;28;20040;-63
2021/07/26 07:12:39;;;;;;;6.45;5.25;;;25.20;99.90;;;;;;4207514;28;20036;-62
2021/07/26 07:14:40;;;;;;;9.32;5.70;;;25.20;99.90;;;;;;4207602;28;20036;-62
2021/07/26 07:16:42;;;;;;;8.02;5.68;;;25.30;99.90;;;;;;4207551;28;20032;-62
2021/07/26 07:18:44;;;;;;;8.13;5.55;;;25.30;99.90;;;;;;4207482;28;20040;-62
2021/07/26 07:20:45;;;;;;;6.28;4.97;;;25.30;99.90;;;;;;4207701;28;20446;-62
2021/07/26 07:22:46;;;;;;;7.93;5.30;;;25.60;99.80;;;;;;4207557;28;20040;-62
2021/07/26 07:24:47;;;;;;;6.85;5.53;;;25.60;99.50;;;;;;4207062;28;20032;-62
2021/07/26 07:26:48;;;;;;;9.30;5.80;;;25.60;99.70;;;;;;4207230;28;20085;-63
2021/07/26 07:28:50;;;;;;;7.10;5.35;;;25.70;99.90;;;;;;4207407;28;20040;-62
2021/07/26 07:30:51;;;;;;;11.30;5.15;;;25.60;99.50;;;;;;4207461;28;20032;-62
2021/07/26 07:32:52;;;;;;;11.65;5.85;;;25.70;99.40;;;;;;4207257;28;20066;-62
2021/07/26 07:34:53;;;;;;;9.05;5.43;;;25.80;99.30;;;;;;4207686;28;20259;-62
2021/07/26 07:36:57;;;;;;;9.73;5.32;;;25.80;99.20;;;;;;4207591;28;20035;-62
2021/07/26 07:38:59;;;;;;;8.70;5.10;;;26.00;99.20;;;;;;4207108;28;20101;-63
2021/07/26 07:41:02;;;;;;;8.18;5.43;;;26.00;99.10;;;;;;4206470;28;20047;-62
2021/07/26 07:43:04;;;;;;;11.38;5.25;;;26.00;99.10;;;;;;4206683;28;20831;-62
2021/07/26 07:45:06;;;;;;;8.63;5.68;;;25.90;99.10;;;;;;4206675;28;20044;-62
2021/07/26 07:47:11;;;;;;;7.85;5.30;;;25.90;99.10;;;;;;4206805;28;20074;-63
2021/07/26 07:49:12;;;;;;;7.75;4.97;;;25.90;99.00;;;;;;4207143;28;20016;-62
2021/07/26 07:51:14;;;;;;;8.35;4.90;;;25.90;98.80;;;;;;4207151;28;20468;-62
2021/07/26 07:53:16;;;;;;;7.45;4.88;;;25.90;98.60;;;;;;4206828;28;20407;-62
2021/07/26 07:55:17;;;;;;;7.88;5.00;;;26.00;98.50;;;;;;4206717;28;20073;-64
2021/07/26 07:57:20;;;;;;;9.25;4.70;;;26.00;98.50;;;;;;4206818;28;20032;-62
2021/07/26 07:59:21;;;;;;;6.82;3.85;;;26.10;98.30;;;;;;4206526;28;20513;-63
2021/07/26 08:01:32;;;;;;;6.80;4.78;;;26.10;98.20;;;;;;4207095;28;20086;-61
2021/07/26 08:03:34;;;;;;;9.40;5.05;;;26.20;97.70;;;;;;4207014;28;20480;-62
2021/07/26 08:05:35;;;;;;;6.38;4.90;;;26.20;97.80;;;;;;4207005;28;20032;-62
2021/07/26 08:07:36;;;;;;;5.13;4.50;;;26.10;97.90;;;;;;4206952;28;20628;-62
2021/07/26 08:09:37;;;;;;;9.73;4.97;;;26.20;97.60;;;;;;4206854;28;20646;-62
2021/07/26 08:11:38;;;;;;;9.38;4.78;;;26.30;97.50;;;;;;4205749;28;20082;-62
2021/07/26 08:13:40;;;;;;;6.50;4.68;;;26.40;97.40;;;;;;4206519;28;20467;-64
2021/07/26 08:15:46;;;;;;;13.98;5.28;;;26.40;97.20;;;;;;4206480;28;20028;-63
2021/07/26 08:17:48;;;;;;;9.70;4.30;;;26.60;96.90;;;;;;4206443;28;20529;-62
2021/07/26 08:19:49;;;;;;;8.75;4.72;;;26.80;96.60;;;;;;4206666;28;20032;-62
2021/07/26 08:21:50;;;;;;;6.43;4.43;;;26.80;96.20;;;;;;4205399;28;20039;-62
2021/07/26 08:23:51;;;;;;;6.63;4.57;;;26.80;96.00;;;;;;4207099;28;20734;-63
2021/07/26 08:25:53;;;;;;;9.10;4.63;;;26.90;95.90;;;;;;4206114;28;20032;-62
2021/07/26 08:27:56;;;;;;;6.18;4.63;;;27.00;95.90;;;;;;4206311;28;20537;-62
2021/07/26 08:29:58;;;;;;;10.00;5.15;;;27.10;95.40;;;;;;4206406;28;20101;-62
2021/07/26 08:31:59;;;;;;;10.30;4.85;;;27.10;95.40;;;;;;4206498;28;20533;-62
2021/07/26 08:34:00;;;;;;;7.43;4.38;;;27.00;95.40;;;;;;4206153;28;20032;-62
2021/07/26 08:36:01;;;;;;;8.38;4.38;;;27.00;95.20;;;;;;4206399;28;20057;-62
2021/07/26 08:38:03;;;;;;;8.20;4.30;;;27.00;95.20;;;;;;4206029;28;20441;-63
2021/07/26 08:40:05;;;;;;;12.75;5.78;;;27.00;95.20;;;;;;4205958;28;20032;-62
2021/07/26 08:42:07;;;;;;;9.15;4.90;;;27.00;95.30;;;;;;4205626;28;20121;-62
2021/07/26 08:44:08;;;;;;;8.55;4.70;;;26.90;95.20;;;;;;4205968;28;20024;-63
2021/07/26 08:46:09;;;;;;;10.52;4.50;;;26.80;95.20;;;;;;4205739;28;20541;-61
2021/07/26 08:48:14;;;;;;;5.47;4.50;;;26.70;95.20;;;;;;4205804;28;20081;-62
2021/07/26 08:50:18;;;;;;;10.20;4.65;;;26.60;95.40;;;;;;4206388;28;20815;-64
2021/07/26 08:52:24;;;;;;;7.85;4.20;;;26.60;95.20;;;;;;4205569;28;20097;-63
2021/07/26 08:54:30;;;;;;;8.43;4.50;;;26.50;95.10;;;;;;4205705;28;20089;-62
2021/07/26 08:56:31;;;;;;;13.90;5.18;;;26.70;95.30;;;;;;4205702;28;20090;-64
2021/07/26 08:58:32;;;;;;;9.20;4.65;;;27.00;95.40;;;;;;4205562;28;20049;-63
2021/07/26 09:00:33;;;;;;;6.13;4.72;;;27.20;95.10;;;;;;4205806;28;20028;-63
2021/07/26 09:02:35;;;;;;;9.18;4.60;;;27.30;94.80;;;;;;4205802;28;20043;-63
2021/07/26 09:04:37;;;;;;;8.52;5.00;;;27.30;94.80;;;;;;4206115;28;20020;-64
2021/07/26 09:06:39;;;;;;;8.68;5.28;;;27.30;94.90;;;;;;4205577;28;20039;-63
2021/07/26 09:08:41;;;;;;;11.93;5.45;;;27.30;94.90;;;;;;4205873;28;20089;-63
2021/07/26 09:10:43;;;;;;;11.60;5.15;;;27.20;94.80;;;;;;4205937;28;20024;-63
2021/07/26 09:12:47;;;;;;;12.10;5.82;;;27.20;95.00;;;;;;4205375;28;20484;-64
2021/07/26 09:14:48;;;;;;;9.23;4.70;;;27.00;95.20;;;;;;4205301;28;20024;-63
2021/07/26 09:16:56;;;;;;;8.60;4.55;;;27.20;95.30;;;;;;4205646;28;20044;-63
2021/07/26 09:19:07;;;;;;;11.80;5.10;;;27.20;95.40;;;;;;4205580;28;20028;-64
2021/07/26 09:21:08;;;;;;;6.63;4.65;;;27.40;94.90;;;;;;4205078;28;20039;-63
2021/07/26 09:23:17;;;;;;;8.50;4.85;;;27.40;94.50;;;;;;4204917;28;20040;-61
2021/07/26 09:25:25;;;;;;;7.25;4.38;;;27.50;94.60;;;;;;4204891;28;20036;-63
2021/07/26 09:27:26;;;;;;;12.60;4.78;;;27.50;94.00;;;;;;4205712;28;20032;-63
2021/07/26 09:29:29;;;;;;;8.15;4.55;;;27.50;93.80;;;;;;4205047;28;20028;-63
2021/07/26 09:31:30;;;;;;;7.88;4.00;;;27.40;93.80;;;;;;4205523;28;20093;-63
2021/07/26 09:33:32;;;;;;;7.88;4.40;;;27.30;94.30;;;;;;4205157;28;20044;-63
2021/07/26 09:35:33;;;;;;;8.82;4.32;;;27.30;94.80;;;;;;4205207;28;20089;-63
2021/07/26 09:37:38;;;;;;;10.80;4.22;;;27.30;94.30;;;;;;4205719;28;20698;-63
2021/07/26 09:39:39;;;;;;;7.57;4.38;;;27.30;94.10;;;;;;4204360;28;20043;-63
2021/07/26 09:41:46;;;;;;;8.75;4.75;;;27.50;94.30;;;;;;4204994;28;20056;-63
2021/07/26 09:43:47;;;;;;;6.65;4.25;;;27.60;94.00;;;;;;4204972;28;20093;-60
2021/07/26 09:45:49;;;;;;;10.90;4.57;;;27.70;94.10;;;;;;4204718;28;20066;-61
2021/07/26 09:48:11;;;;;;;9.88;4.38;;;27.80;94.00;;;;;;4205320;28;20436;-61
2021/07/26 09:50:28;;;;;;;14.98;6.13;;;27.80;93.80;;;;;;4204872;28;20031;-62
2021/07/26 09:52:29;;;;;;;8.35;4.70;;;27.90;94.00;;;;;;4204600;28;20044;-61
2021/07/26 09:54:47;;;;;;;9.32;4.90;;;27.90;93.60;;;;;;4204649;28;20355;-62
2021/07/26 09:56:48;;;;;;;7.93;4.57;;;28.00;93.60;;;;;;4205192;28;20104;-62
2021/07/26 09:58:49;;;;;;;10.07;4.55;;;28.10;93.70;;;;;;4204871;28;20078;-62
2021/07/26 10:00:50;;;;;;;6.80;4.50;;;28.20;93.90;;;;;;4205335;28;20036;-62
2021/07/26 10:02:52;;;;;;;6.47;4.40;;;28.40;93.70;;;;;;4204934;28;20117;-63
2021/07/26 10:04:54;;;;;;;10.30;4.40;;;28.60;93.60;;;;;;4204817;28;20043;-62
2021/07/26 10:06:57;;;;;;;6.90;4.30;;;28.60;93.20;;;;;;4205019;28;20093;-62
2021/07/26 10:09:00;;;;;;;6.03;4.78;;;28.50;92.70;;;;;;4205060;28;20058;-62
2021/07/26 10:11:01;;;;;;;6.53;4.63;;;28.50;92.50;;;;;;4204789;28;20081;-62
2021/07/26 10:13:03;;;;;;;5.88;4.63;;;28.40;92.50;;;;;;4205168;28;20044;-61
2021/07/26 10:15:06;;;;;;;9.85;4.25;;;28.40;92.70;;;;;;4204977;28;20429;-61
2021/07/26 10:17:07;;;;;;;9.50;4.28;;;28.40;92.70;;;;;;4205415;28;20038;-62
2021/07/26 10:19:09;;;;;;;5.40;4.47;;;28.50;92.80;;;;;;4205287;28;20040;-62
2021/07/26 10:21:13;;;;;;;11.50;5.00;;;28.40;92.80;;;;;;4204847;28;20032;-62
2021/07/26 10:23:21;;;;;;;4.93;4.40;;;28.30;92.90;;;;;;4204447;28;20194;-62
2021/07/26 10:25:58;;;;;;;13.23;4.70;;;28.40;93.00;;;;;;4204517;28;20048;-62
2021/07/26 10:28:02;;;;;;;6.07;4.90;;;28.40;92.80;;;;;;4190946;28;20048;-62
2021/07/26 10:30:04;;;;;;;10.77;4.70;;;28.40;93.30;;;;;;4204628;28;20648;-62